Pagina principale
METAR-TAF:

METAR-TAF

Aeroporti :

Aeroporto militare

Salon-de-Provence, Francia

latitudine: 43-36N, longitudine: 005-06E, altezza: 59 m

Osservazione

Il bollettino è stato emesso 49 minuti fa, alle 06:00 UTC
Vento 3 kt da nord/nord-est
Temperature 27°C
Umidità 58%
Pressione 1021 hPa
Visibilità 10 km o più
nessuna nube inferiore a 1500 m e nessun cumulonembo

METAR: LFMY 270600Z AUTO 03003KT CAVOK 27/18 Q1021 NOSIG

Ora: 08:49 (06:49 UTC)

Previsione

Il bollettino è stato emesso 2 ore e 44 minuti fa, alle 04:05 UTC
Previsione valida dal 27 alle 03 UTC al 28 alle 03 UTC
Vento 2 kt da direzioni variabili
Visibilità 10 km o più
nessuna nube inferiore a 1500 m e nessun cumulonembo
Evoluzione graduale
dal 27 alle 10 UTC al 27 alle 13 UTC
Vento 10 kt da ovest/sud-ovest
Evoluzione graduale
dal 27 alle 20 UTC al 27 alle 22 UTC
Vento 2 kt da direzioni variabili

TAF: LFMY 270405Z 2703/2803 VRB02KT CAVOK BECMG 2710/2713 24010KT BECMG 2720/2722 VRB02KT

Osservazioni e previsioni meteorologiche di più di 4000 aeroporti (messaggi METAR e TAF).

Le stazioni disponibili sono rappresentate dai dischi gialli e rossi sulla carta.

Puntare il mouse per vedere il nome della stazione.

Clicca sopra per visualizzare le osservazioni e previsioni meteorologiche.

Per cambiare la mappa : fare clic sui pulsanti verdi con una croce nera per ingrandire, il pulsante verde con un trattino per diminuire, o sulla freccia verde per le mappe adiacenti.


METAR-TAF: